Payne City, Georgia
Current Conditions -  °F | °C
As of 6:53 PM on Wednesday 22 Oct 2014 (Local Time) from KMCN Reporting Station
Clear Clear  
Wind Chill: 61°   Ceiling: Unl
Heat Index: 61°   Visibility: 10mi
Dew Point: 44°   Wind: 5mph
Humidity: 54%   Direction: 10°N
Pressure: 30.05"   Gusts: NA
Location:  32.85°N, 83.675°W
Report Text: KMCN 222253Z 01004KT 10SM CLR 16/07 A3005 RMK AO2 SLP175 T01610067
Loading
Personal Weather Stations






























Interactive Weather Map
Tropical Storm Tracking
New forecast layout! Learn more

10-Day Weather Forecast

Advertisements
Track Severe Weather on mobile